createdAt,value
2023-05-18T00:01:31.761Z,56.44
2023-05-18T00:04:04.306Z,55.96
2023-05-18T00:06:35.158Z,55.89
2023-05-18T00:09:04.675Z,55.70
2023-05-18T00:11:39.748Z,55.92
2023-05-18T00:14:09.434Z,56.12
2023-05-18T00:16:38.757Z,55.87
2023-05-18T00:19:09.666Z,55.73
2023-05-18T00:21:42.052Z,55.96
2023-05-18T00:24:12.320Z,56.30
2023-05-18T00:26:42.812Z,56.93
2023-05-18T00:29:15.723Z,56.61
2023-05-18T00:31:45.639Z,56.39
2023-05-18T00:34:16.862Z,56.68
2023-05-18T00:36:50.431Z,57.40
2023-05-18T00:39:21.034Z,57.15
2023-05-18T00:41:51.318Z,57.25
2023-05-18T00:44:20.962Z,56.75
2023-05-18T00:46:52.740Z,57.15
2023-05-18T00:49:24.522Z,57.15
2023-05-18T00:51:58.802Z,57.35
2023-05-18T00:54:29.683Z,57.65
2023-05-18T00:57:02.322Z,56.47
2023-05-18T00:59:32.848Z,56.76
2023-05-18T01:02:03.345Z,57.24
2023-05-18T01:04:34.400Z,57.27
2023-05-18T01:07:07.706Z,57.53
2023-05-18T01:09:38.666Z,57.52
2023-05-18T01:12:20.415Z,57.34
2023-05-18T01:14:56.692Z,57.78
2023-05-18T01:17:45.177Z,57.18
2023-05-18T01:20:24.041Z,57.76
2023-05-18T01:23:17.917Z,56.95
2023-05-18T01:25:58.694Z,56.83
2023-05-18T01:28:35.018Z,57.22
2023-05-18T01:31:05.802Z,56.83
2023-05-18T01:33:37.540Z,57.82
2023-05-18T01:36:07.615Z,56.82
2023-05-18T01:38:39.032Z,57.10
2023-05-18T01:41:17.199Z,56.29
2023-05-18T01:43:55.440Z,56.26
2023-05-18T01:46:37.093Z,56.48
2023-05-18T01:49:14.598Z,56.26
2023-05-18T01:51:48.131Z,56.52
2023-05-18T01:54:21.397Z,55.57
2023-05-18T01:56:54.055Z,55.84
2023-05-18T01:59:26.439Z,55.52
2023-05-18T02:02:00.677Z,55.46
2023-05-18T02:04:31.118Z,56.44
2023-05-18T02:07:00.584Z,56.41
2023-05-18T02:09:30.550Z,56.06
2023-05-18T02:11:59.507Z,55.70
2023-05-18T02:14:31.894Z,56.05
2023-05-18T02:17:01.501Z,55.97
2023-05-18T02:19:32.692Z,56.19
2023-05-18T02:22:02.803Z,56.04
2023-05-18T02:24:41.295Z,55.79
2023-05-18T02:27:11.947Z,55.50
2023-05-18T02:29:48.470Z,55.59
2023-05-18T02:32:18.981Z,56.07
2023-05-18T02:34:50.399Z,55.79
2023-05-18T02:37:23.490Z,56.47
2023-05-18T02:39:54.042Z,55.72
2023-05-18T02:42:26.861Z,56.66
2023-05-18T02:44:58.914Z,56.16
2023-05-18T02:47:29.212Z,56.68
2023-05-18T02:49:59.217Z,56.77
2023-05-18T02:52:30.721Z,56.23
2023-05-18T02:54:59.618Z,56.16
2023-05-18T02:57:29.664Z,56.41
2023-05-18T03:00:00.361Z,56.15
2023-05-18T03:02:31.037Z,56.37
2023-05-18T03:05:00.621Z,56.36
2023-05-18T03:07:29.933Z,55.68
2023-05-18T03:09:59.905Z,55.97
2023-05-18T03:12:29.553Z,56.10
2023-05-18T03:15:00.359Z,56.06
2023-05-18T03:17:29.924Z,56.27
2023-05-18T03:19:58.884Z,56.42
2023-05-18T03:22:28.824Z,55.90
2023-05-18T03:24:58.114Z,56.26
2023-05-18T03:27:28.049Z,56.41
2023-05-18T03:29:58.969Z,56.37
2023-05-18T03:32:29.321Z,56.81
2023-05-18T03:35:01.940Z,56.41
2023-05-18T03:37:32.688Z,56.91
2023-05-18T03:40:12.065Z,56.33
2023-05-18T03:42:44.777Z,56.23
2023-05-18T03:45:16.374Z,56.56
2023-05-18T03:47:46.176Z,57.36
2023-05-18T03:50:20.669Z,56.82
2023-05-18T03:52:53.250Z,57.13
2023-05-18T03:55:26.751Z,56.79
2023-05-18T03:57:57.106Z,57.21
2023-05-18T04:00:30.485Z,57.33
2023-05-18T04:02:59.469Z,57.08
2023-05-18T04:05:29.178Z,57.28
2023-05-18T04:07:58.828Z,57.56
2023-05-18T04:10:30.702Z,57.07
2023-05-18T04:13:00.053Z,57.20
2023-05-18T04:15:31.358Z,56.64
2023-05-18T04:18:03.380Z,56.78
2023-05-18T04:20:33.760Z,56.73
2023-05-18T04:23:04.874Z,56.37
2023-05-18T04:25:39.490Z,56.17
2023-05-18T04:28:10.352Z,56.93
2023-05-18T04:30:41.929Z,56.59
2023-05-18T04:33:13.071Z,56.46
2023-05-18T04:35:43.358Z,56.63
2023-05-18T04:38:15.679Z,56.94
2023-05-18T04:40:45.132Z,56.52
2023-05-18T04:43:14.730Z,56.34
2023-05-18T04:45:47.267Z,56.28
2023-05-18T04:48:17.870Z,55.95
2023-05-18T04:50:48.556Z,56.07
2023-05-18T04:53:19.612Z,56.16
2023-05-18T04:55:52.444Z,55.95
2023-05-18T04:58:22.665Z,56.11
2023-05-18T05:00:53.473Z,55.72
2023-05-18T05:03:22.964Z,55.59
2023-05-18T05:05:54.665Z,55.50
2023-05-18T05:08:25.342Z,55.14
2023-05-18T05:10:55.172Z,54.90
2023-05-18T05:13:27.152Z,54.57
2023-05-18T05:15:58.734Z,54.27
2023-05-18T05:18:30.320Z,53.81
2023-05-18T05:21:00.827Z,53.81
2023-05-18T05:23:30.938Z,53.53
2023-05-18T05:25:59.989Z,53.35
2023-05-18T05:28:29.635Z,53.00
2023-05-18T05:31:00.506Z,53.00
2023-05-18T05:33:30.250Z,52.51
2023-05-18T05:35:59.961Z,52.22
2023-05-18T05:38:31.701Z,52.33
2023-05-18T05:41:01.170Z,52.27
2023-05-18T05:43:34.663Z,51.78
2023-05-18T05:46:06.878Z,52.23
2023-05-18T05:48:39.616Z,51.48
2023-05-18T05:51:12.061Z,51.15
2023-05-18T05:53:44.156Z,50.73
2023-05-18T05:56:13.779Z,50.74
2023-05-18T05:58:44.699Z,51.11
2023-05-18T06:01:15.609Z,51.10
2023-05-18T06:03:45.764Z,50.54
2023-05-18T06:06:15.575Z,50.04
2023-05-18T06:08:44.974Z,49.84
2023-05-18T06:11:14.671Z,50.16
2023-05-18T06:13:44.270Z,49.41
2023-05-18T06:16:17.255Z,49.28
2023-05-18T06:18:47.156Z,49.49
2023-05-18T06:21:16.796Z,49.33
2023-05-18T06:23:46.098Z,49.39
2023-05-18T06:26:29.274Z,48.66
2023-05-18T06:29:00.309Z,48.72
2023-05-18T06:31:33.319Z,48.31
2023-05-18T06:34:03.258Z,47.78
2023-05-18T06:36:33.454Z,47.78
2023-05-18T06:39:03.187Z,47.64
2023-05-18T06:41:32.585Z,47.00
2023-05-18T06:44:02.603Z,47.34
2023-05-18T06:46:34.304Z,47.50
2023-05-18T06:49:05.430Z,46.67
2023-05-18T06:51:35.718Z,46.48
2023-05-18T06:54:05.216Z,45.78
2023-05-18T06:56:35.011Z,45.49
2023-05-18T06:59:04.838Z,45.44
2023-05-18T07:01:36.685Z,44.78
2023-05-18T07:04:06.856Z,44.82
2023-05-18T07:06:36.822Z,44.96
2023-05-18T07:09:07.874Z,44.99
2023-05-18T07:11:37.947Z,44.67
2023-05-18T07:14:07.140Z,44.61
2023-05-18T07:16:40.885Z,43.82
2023-05-18T07:19:09.989Z,43.60
2023-05-18T07:21:38.622Z,43.60
2023-05-18T07:24:08.499Z,42.75
2023-05-18T07:26:38.236Z,42.84
2023-05-18T07:29:07.883Z,42.80
2023-05-18T07:31:46.460Z,43.10
2023-05-18T07:34:15.416Z,42.68
2023-05-18T07:36:46.073Z,42.37
2023-05-18T07:39:19.812Z,41.88
2023-05-18T07:41:53.592Z,42.04
2023-05-18T07:44:28.096Z,41.88
2023-05-18T07:47:01.690Z,42.62
2023-05-18T07:49:34.662Z,42.16
2023-05-18T07:52:04.140Z,42.53
2023-05-18T07:54:35.917Z,42.41
2023-05-18T07:57:06.084Z,42.46
2023-05-18T07:59:34.707Z,42.35
2023-05-18T08:02:06.852Z,42.36
2023-05-18T08:04:37.491Z,41.61
2023-05-18T08:07:07.307Z,41.84
2023-05-18T08:09:37.972Z,41.59
2023-05-18T08:12:10.015Z,41.67
2023-05-18T08:14:45.368Z,41.43
2023-05-18T08:17:16.413Z,41.40
2023-05-18T08:19:56.316Z,41.71
2023-05-18T08:22:25.632Z,41.22
2023-05-18T08:24:56.786Z,41.19
2023-05-18T08:27:26.922Z,41.02
2023-05-18T08:29:56.728Z,41.04
2023-05-18T08:32:32.703Z,41.33
2023-05-18T08:35:02.362Z,41.50
2023-05-18T08:37:33.682Z,41.88
2023-05-18T08:40:04.875Z,41.90
2023-05-18T08:42:50.058Z,41.55
2023-05-18T08:45:30.768Z,42.37
2023-05-18T08:48:04.764Z,41.92
2023-05-18T08:50:38.208Z,41.48
2023-05-18T08:53:08.827Z,40.71
2023-05-18T08:55:39.093Z,40.78
2023-05-18T08:58:11.360Z,40.68
2023-05-18T09:00:45.492Z,41.30
2023-05-18T09:03:16.888Z,41.34
2023-05-18T09:05:48.478Z,41.22
2023-05-18T09:08:27.002Z,41.18
2023-05-18T09:11:00.681Z,41.01
2023-05-18T09:13:32.384Z,41.48
2023-05-18T09:16:03.342Z,41.49
2023-05-18T09:18:35.866Z,41.24
2023-05-18T09:21:11.315Z,40.81
2023-05-18T09:23:43.726Z,39.99
2023-05-18T09:26:13.879Z,39.63
2023-05-18T09:28:45.996Z,39.16
2023-05-18T09:31:24.833Z,39.03
2023-05-18T09:33:58.285Z,38.70
2023-05-18T09:36:30.701Z,38.54
2023-05-18T09:39:00.946Z,37.90
2023-05-18T09:41:31.372Z,38.35
2023-05-18T09:44:05.578Z,38.17
2023-05-18T09:46:38.086Z,38.65
2023-05-18T09:49:12.163Z,37.88
2023-05-18T09:51:46.535Z,37.44
2023-05-18T09:54:16.319Z,37.72
2023-05-18T09:57:02.038Z,37.98
2023-05-18T09:59:42.594Z,37.65
2023-05-18T10:02:30.575Z,37.52
2023-05-18T10:05:03.837Z,37.25
2023-05-18T10:07:38.252Z,37.02
2023-05-18T10:10:10.432Z,37.12
2023-05-18T10:12:45.134Z,36.48
2023-05-18T10:15:18.458Z,36.38
2023-05-18T10:17:57.571Z,36.55
2023-05-18T10:20:31.949Z,35.51
2023-05-18T10:23:07.193Z,35.38
2023-05-18T10:25:39.102Z,34.87
2023-05-18T10:28:14.469Z,35.04
2023-05-18T10:30:45.592Z,35.61
2023-05-18T10:33:28.359Z,34.74
2023-05-18T10:36:02.308Z,34.89
2023-05-18T10:38:33.128Z,34.90
2023-05-18T10:41:06.684Z,34.69
2023-05-18T10:43:40.648Z,34.17
2023-05-18T10:46:12.460Z,34.87
2023-05-18T10:48:46.820Z,34.55
2023-05-18T10:51:23.526Z,34.21
2023-05-18T10:53:56.456Z,33.76
2023-05-18T10:56:27.236Z,33.83
2023-05-18T10:59:00.558Z,33.87
2023-05-18T11:01:30.235Z,33.62
2023-05-18T11:04:08.842Z,32.42
2023-05-18T11:06:39.886Z,32.17
2023-05-18T11:09:10.195Z,32.81
2023-05-18T11:12:03.973Z,32.98
2023-05-18T11:14:37.642Z,32.22
2023-05-18T11:17:33.029Z,32.75
2023-05-18T11:20:18.833Z,33.35
2023-05-18T11:22:53.521Z,32.55
2023-05-18T11:25:51.600Z,33.52
2023-05-18T11:28:26.189Z,33.72
2023-05-18T11:30:58.346Z,33.80
2023-05-18T11:33:31.996Z,33.36
2023-05-18T11:36:11.874Z,32.44
2023-05-18T11:39:07.122Z,32.56
2023-05-18T11:41:39.510Z,32.04
2023-05-18T11:44:20.340Z,31.39
2023-05-18T11:47:01.686Z,31.44
2023-05-18T11:49:33.998Z,30.84
2023-05-18T11:52:10.082Z,30.44
2023-05-18T11:54:47.605Z,30.75
2023-05-18T12:00:12.137Z,30.96
2023-05-18T12:02:46.845Z,31.81
2023-05-18T12:05:18.062Z,31.28
2023-05-18T12:07:57.566Z,31.28
2023-05-18T12:10:32.414Z,30.89
2023-05-18T12:13:05.187Z,31.10
2023-05-18T12:15:36.067Z,30.58
2023-05-18T12:18:08.298Z,29.63
2023-05-18T12:20:41.557Z,28.99
2023-05-18T12:23:15.179Z,28.34
2023-05-18T12:25:51.206Z,27.69
2023-05-18T12:28:29.792Z,28.09
2023-05-18T12:31:07.710Z,27.87
2023-05-18T12:33:38.243Z,28.20
2023-05-18T12:36:13.459Z,28.87
2023-05-18T12:38:44.648Z,29.20
2023-05-18T12:41:27.149Z,29.35
2023-05-18T12:43:59.385Z,28.91
2023-05-18T12:46:29.581Z,28.97
2023-05-18T12:49:06.691Z,28.49
2023-05-18T12:51:38.756Z,28.42
2023-05-18T12:54:11.139Z,28.92
2023-05-18T12:57:01.884Z,28.27
2023-05-18T12:59:32.326Z,27.90
2023-05-18T13:02:03.366Z,28.44
2023-05-18T13:04:37.375Z,27.77
2023-05-18T13:07:08.040Z,28.24
2023-05-18T13:09:37.407Z,28.84
2023-05-18T13:12:10.030Z,28.88
2023-05-18T13:14:41.395Z,29.29
2023-05-18T13:17:12.221Z,29.37
2023-05-18T13:19:41.838Z,29.12
2023-05-18T13:22:11.434Z,29.30
2023-05-18T13:24:43.100Z,29.86
2023-05-18T13:27:14.795Z,30.68
2023-05-18T13:29:44.907Z,30.38
2023-05-18T13:32:15.202Z,30.14
2023-05-18T13:34:44.871Z,29.29
2023-05-18T13:37:14.911Z,27.95
2023-05-18T13:39:46.122Z,27.93
2023-05-18T13:42:21.879Z,27.11
2023-05-18T13:44:51.818Z,27.14
2023-05-18T13:47:23.124Z,27.46
2023-05-18T13:49:57.347Z,28.26
2023-05-18T13:52:28.221Z,28.71
2023-05-18T13:54:57.812Z,28.62
2023-05-18T13:57:31.483Z,28.64
2023-05-18T14:00:04.682Z,28.23
2023-05-18T14:02:35.478Z,28.33
2023-05-18T14:05:08.844Z,27.36
2023-05-18T14:07:41.481Z,26.76
2023-05-18T14:10:14.146Z,26.50
2023-05-18T14:12:45.745Z,26.50
2023-05-18T14:15:16.578Z,28.13
2023-05-18T14:17:47.722Z,27.88
2023-05-18T14:20:16.572Z,28.21
2023-05-18T14:22:46.476Z,29.49
2023-05-18T14:25:16.830Z,28.71
2023-05-18T14:27:50.408Z,29.08
2023-05-18T14:30:20.490Z,28.97
2023-05-18T14:32:50.622Z,29.79
2023-05-18T14:35:29.590Z,29.58
2023-05-18T14:38:00.890Z,28.93
2023-05-18T14:40:30.776Z,27.96
2023-05-18T14:43:02.411Z,28.88
2023-05-18T14:45:32.657Z,28.52
2023-05-18T14:48:05.238Z,28.51
2023-05-18T14:50:38.222Z,28.59
2023-05-18T14:53:08.293Z,28.84
2023-05-18T14:55:39.812Z,29.05
2023-05-18T14:58:17.238Z,28.57
2023-05-18T15:00:47.430Z,28.18
2023-05-18T15:03:21.444Z,27.63
2023-05-18T15:05:52.385Z,28.25
2023-05-18T15:08:24.879Z,27.73
2023-05-18T15:10:56.993Z,28.07
2023-05-18T15:13:34.258Z,27.71
2023-05-18T15:16:03.536Z,27.97
2023-05-18T15:18:34.484Z,28.55
2023-05-18T15:21:03.954Z,28.58
2023-05-18T15:24:32.142Z,28.73
2023-05-18T15:27:04.088Z,28.81
2023-05-18T15:29:43.211Z,28.92
2023-05-18T15:32:12.624Z,29.74
2023-05-18T15:34:42.180Z,30.13
2023-05-18T15:56:23.658Z,29.42
2023-05-18T15:58:52.597Z,29.31
2023-05-18T16:01:21.261Z,29.36
2023-05-18T16:03:49.963Z,29.55
2023-05-18T16:06:19.247Z,28.36
2023-05-18T16:08:47.706Z,27.53
2023-05-18T16:11:16.239Z,26.36
2023-05-18T16:13:47.789Z,26.23
2023-05-18T16:16:16.300Z,27.19
2023-05-18T16:18:44.818Z,27.38
2023-05-18T16:21:13.336Z,27.37
2023-05-18T16:23:42.465Z,26.81
2023-05-18T16:26:11.135Z,25.99
2023-05-18T16:28:40.148Z,25.16
2023-05-18T16:31:12.004Z,25.14
2023-05-18T16:33:41.373Z,24.98
2023-05-18T16:36:10.361Z,24.61
2023-05-18T16:38:39.286Z,24.09
2023-05-18T16:41:08.742Z,24.29
2023-05-18T16:43:39.107Z,23.96
2023-05-18T16:46:10.143Z,23.63
2023-05-18T16:48:39.048Z,23.51
2023-05-18T16:51:08.013Z,23.16
2023-05-18T16:53:37.086Z,23.08
2023-05-18T16:56:07.262Z,22.40
2023-05-18T16:58:35.821Z,22.37
2023-05-18T17:01:15.881Z,22.72
2023-05-18T17:03:55.343Z,22.73
2023-05-18T17:06:24.077Z,22.35
2023-05-18T17:08:57.639Z,22.70
2023-05-18T17:11:27.827Z,22.65
2023-05-18T17:13:57.902Z,22.70
2023-05-18T17:16:28.444Z,23.03
2023-05-18T17:18:58.663Z,22.91
2023-05-18T17:21:28.348Z,23.14
2023-05-18T17:23:56.954Z,22.93
2023-05-18T17:26:30.384Z,22.89
2023-05-18T17:28:58.950Z,23.55
2023-05-18T17:31:27.765Z,22.91
2023-05-18T17:33:57.771Z,23.15
2023-05-18T17:36:26.918Z,23.45
2023-05-18T17:38:56.295Z,23.31
2023-05-18T17:41:25.967Z,23.92
2023-05-18T17:43:54.535Z,23.56
2023-05-18T17:46:23.047Z,23.84
2023-05-18T17:48:51.499Z,23.81
2023-05-18T17:51:21.987Z,23.91
2023-05-18T17:53:50.517Z,23.78
2023-05-18T17:56:19.013Z,24.01
2023-05-18T17:58:47.786Z,24.40
2023-05-18T18:01:16.268Z,24.88
2023-05-18T18:03:44.770Z,24.64
2023-05-18T18:06:13.339Z,25.07
2023-05-18T18:08:43.131Z,25.16
2023-05-18T18:11:11.530Z,25.95
2023-05-18T18:13:39.959Z,26.97
2023-05-18T18:16:09.079Z,28.06
2023-05-18T18:18:38.251Z,28.92
2023-05-18T18:21:07.715Z,29.60
2023-05-18T18:23:37.070Z,30.99
2023-05-18T18:26:08.031Z,32.37
2023-05-18T18:28:37.106Z,32.68
2023-05-18T18:31:07.226Z,33.81
2023-05-18T18:33:36.700Z,34.86
2023-05-18T18:36:07.409Z,35.84
2023-05-18T18:38:36.896Z,37.15
2023-05-18T18:41:07.197Z,38.30
2023-05-18T18:43:38.811Z,39.11
2023-05-18T18:46:10.703Z,40.42
2023-05-18T18:48:40.397Z,41.38
2023-05-18T18:51:08.955Z,42.28
2023-05-18T18:53:37.354Z,43.51
2023-05-18T18:56:07.468Z,44.54
2023-05-18T18:58:36.030Z,45.25
2023-05-18T19:01:04.688Z,45.78
2023-05-18T19:03:33.311Z,47.08
2023-05-18T19:06:02.190Z,47.50
2023-05-18T19:08:31.592Z,47.85
2023-05-18T19:10:59.952Z,48.77
2023-05-18T19:13:29.739Z,50.09
2023-05-18T19:15:58.253Z,50.18
2023-05-18T19:18:26.815Z,51.18
2023-05-18T19:20:55.188Z,51.30
2023-05-18T19:23:23.628Z,52.72
2023-05-18T19:25:51.972Z,53.32
2023-05-18T19:28:20.401Z,53.57
2023-05-18T19:30:50.084Z,55.09
2023-05-18T19:33:18.484Z,55.16
2023-05-18T19:35:46.974Z,55.76
2023-05-18T19:38:15.705Z,56.42
2023-05-18T19:40:44.026Z,56.75
2023-05-18T19:43:12.438Z,57.88
2023-05-18T19:45:41.043Z,58.56
2023-05-18T19:48:11.108Z,59.02
2023-05-18T19:50:39.591Z,59.33
2023-05-18T19:53:08.246Z,59.81
2023-05-18T19:55:36.929Z,60.30
2023-05-18T19:58:05.372Z,61.02
2023-05-18T20:00:34.579Z,61.33
2023-05-18T20:03:04.012Z,61.90
2023-05-18T20:05:34.532Z,62.14
2023-05-18T20:08:03.276Z,62.37
2023-05-18T20:10:31.968Z,62.75
2023-05-18T20:13:00.998Z,63.21
2023-05-18T20:15:32.384Z,63.56
2023-05-18T20:18:01.949Z,64.10
2023-05-18T20:20:33.473Z,64.97
2023-05-18T20:23:03.814Z,64.55
2023-05-18T20:25:34.998Z,65.03
2023-05-18T20:28:07.398Z,65.37
2023-05-18T20:30:36.475Z,65.49
2023-05-18T20:33:05.443Z,66.08
2023-05-18T20:35:34.710Z,66.20
2023-05-18T20:38:04.893Z,66.38
2023-05-18T20:40:33.712Z,66.58
2023-05-18T20:43:02.420Z,66.71
2023-05-18T20:45:31.479Z,66.96
2023-05-18T20:48:00.808Z,67.56
2023-05-18T20:50:29.408Z,67.34
2023-05-18T20:52:57.913Z,67.65
2023-05-18T20:55:29.108Z,67.99
2023-05-18T20:57:57.744Z,67.95
2023-05-18T21:00:26.119Z,68.41
2023-05-18T21:02:54.526Z,68.64
2023-05-18T21:05:23.407Z,68.56
2023-05-18T21:07:53.586Z,69.34
2023-05-18T21:10:22.052Z,69.06
2023-05-18T21:12:51.817Z,69.33
2023-05-18T21:15:20.346Z,69.08
2023-05-18T21:17:48.782Z,69.42
2023-05-18T21:20:17.233Z,69.86
2023-05-18T21:22:45.687Z,69.81
2023-05-18T21:25:14.093Z,70.03
2023-05-18T21:27:42.600Z,70.29
2023-05-18T21:30:15.782Z,70.86
2023-05-18T21:32:44.695Z,70.92
2023-05-18T21:35:13.242Z,70.93
2023-05-18T21:37:41.857Z,70.96
2023-05-18T21:40:11.282Z,71.76
2023-05-18T21:42:45.041Z,71.74
2023-05-18T21:45:15.093Z,71.60
2023-05-18T21:47:43.584Z,72.03
2023-05-18T21:50:12.763Z,72.13
2023-05-18T21:52:41.452Z,72.23
2023-05-18T21:55:11.092Z,72.84
2023-05-18T21:57:39.507Z,72.40
2023-05-18T22:00:12.333Z,73.14
2023-05-18T22:02:42.194Z,73.11
2023-05-18T22:05:11.414Z,73.33
2023-05-18T22:07:42.448Z,73.59
2023-05-18T22:10:11.734Z,73.82
2023-05-18T22:12:41.147Z,74.08
2023-05-18T22:15:11.659Z,73.84
2023-05-18T22:17:41.647Z,74.16
2023-05-18T22:20:11.711Z,74.11
2023-05-18T22:22:41.414Z,74.60
2023-05-18T22:25:10.829Z,74.87
2023-05-18T22:27:39.339Z,75.09
2023-05-18T22:30:09.089Z,75.41
2023-05-18T22:32:38.272Z,75.48
2023-05-18T22:35:10.770Z,75.07
2023-05-18T22:37:39.150Z,75.30
2023-05-18T22:40:09.932Z,76.12
2023-05-18T22:42:38.513Z,75.77
2023-05-18T22:45:08.420Z,75.84
2023-05-18T22:47:39.078Z,76.78
2023-05-18T22:50:10.759Z,76.15
2023-05-18T22:52:40.623Z,76.49
2023-05-18T22:55:13.162Z,76.93
2023-05-18T22:57:41.641Z,76.59
2023-05-18T23:00:11.940Z,77.29
2023-05-18T23:02:41.098Z,77.63
2023-05-18T23:05:11.404Z,78.31
2023-05-18T23:07:41.897Z,77.94
2023-05-18T23:10:12.349Z,77.72
2023-05-18T23:12:45.628Z,78.64
2023-05-18T23:15:14.288Z,77.93
2023-05-18T23:17:42.718Z,77.95
2023-05-18T23:20:14.024Z,79.05
2023-05-18T23:22:42.445Z,79.16
2023-05-18T23:25:11.276Z,78.47
2023-05-18T23:27:39.794Z,78.46
2023-05-18T23:30:09.515Z,79.58
2023-05-18T23:32:38.998Z,79.46
2023-05-18T23:35:10.120Z,80.35
2023-05-18T23:37:43.259Z,80.15
2023-05-18T23:40:13.910Z,79.45
2023-05-18T23:42:43.066Z,80.64
2023-05-18T23:45:13.455Z,80.03
2023-05-18T23:47:42.621Z,79.36
2023-05-18T23:50:12.551Z,79.21
2023-05-18T23:52:43.909Z,79.78
2023-05-18T23:55:13.705Z,80.63
2023-05-18T23:57:42.820Z,80.02
